Data for 05/19/2006

Time Sea-Level Adjusted Pressure Absolute Pressure Temperature Relative Humidity Dew Point   
(mb) (inHg) (mb) (inHg) (C) (F) (%) (C) (F)
00:05 1017 30.03 846 24.98 19 66.2 43 6.4 43.5
00:10 1017 30.03 846 24.98 19.2 66.6 43 6.4 43.5
00:15 1017 30.03 846 24.98 19.3 66.7 43 6.6 43.9
00:20 1017 30.03 846 24.98 19.1 66.4 44 6.6 43.9
00:25 1017 30.03 846 24.98 19.1 66.3 47 7.5 45.5
00:30 1017 30.03 846 24.98 18.8 65.8 49 7.9 46.2
00:35 1017 30.03 846 24.98 18.8 65.8 47 7.3 45.1
00:40 1017 30.03 846 24.98 18.9 66 47 7.3 45.2
00:45 1017 30.03 846 24.98 19 66.1 46 7.2 44.9
00:50 1017 30.03 846 24.98 18.8 65.9 45 6.9 44.3
00:55 1017 30.03 846 24.98 18.8 65.9 44 6.4 43.5
01:00 1017 30.03 846 24.98 19.2 66.5 43 6.5 43.8
01:05 1017 30.03 846 24.98 19.4 66.9 43 6.5 43.6
01:10 1017 30.03 846 24.98 19.6 67.2 43 6.8 44.2
01:15 1017 30.03 846 24.98 19.5 67.2 43 6.8 44.3
01:20 1017 30.03 846 24.98 19.5 67.1 43 6.9 44.4
01:25 1017 30.03 846 24.98 19.4 66.9 45 7.2 44.9
01:30 1017 30.03 846 24.98 19.2 66.6 45 7.2 45
01:35 1017 30.03 846 24.98 19.2 66.5 46 7.3 45.2
01:40 1017 30.03 846 24.98 19.3 66.8 43 6.5 43.7
01:45 1017 30.03 846 24.98 19.1 66.5 47 7.6 45.7
01:50 1017 30.03 846 24.98 18.5 65.3 47 7.1 44.8
01:55 1017 30.03 847 25.01 18.5 65.2 48 7.2 45
02:00 1017 30.03 847 25.01 18.5 65.3 48 7.3 45.1
02:05 1017 30.03 847 25.01 18.6 65.4 47 7.2 45
02:10 1017 30.03 846 24.98 18.6 65.4 48 7.4 45.3
02:15 1017 30.03 846 24.98 18.4 65.2 49 7.6 45.6
02:20 1017 30.03 846 24.98 18.5 65.3 49 7.8 46
02:25 1017 30.03 846 24.98 18.5 65.3 48 7.3 45.2
02:30 1017 30.03 846 24.98 18.5 65.3 50 8.1 46.5
02:35 1017 30.03 846 24.98 18.4 65.1 51 8.3 46.9
02:40 1017 30.03 846 24.98 18.1 64.6 51 8 46.4
02:45 1017 30.03 846 24.98 18.1 64.5 57 9.6 49.2
02:50 1017 30.03 846 24.98 17.9 64.2 53 8.4 47
02:55 1017 30.03 846 24.98 17.5 63.4 55 8.6 47.4
03:00 1017 30.03 846 24.98 17.3 63.2 56 8.6 47.4
03:05 1017 30.03 847 25.01 17.4 63.4 56 8.6 47.5
03:10 1017 30.03 847 25.01 17.5 63.6 55 8.4 47.1
03:15 1017 30.03 847 25.01 17.7 63.9 53 8.2 46.7
03:20 1017 30.03 847 25.01 18 64.3 52 7.9 46.3
03:25 1017 30.03 847 25.01 18.1 64.6 52 8.3 47
03:30 1017 30.03 847 25.01 18.2 64.7 54 8.9 48.1
03:35 1017 30.03 847 25.01 17.6 63.7 57 9.1 48.3
03:40 1017 30.03 847 25.01 17.4 63.4 58 9.1 48.3
03:45 1017 30.03 846 24.98 17.1 62.9 57 8.7 47.6
03:50 1017 30.03 846 24.98 17.2 62.9 58 8.9 48.1
03:55 1017 30.03 846 24.98 16.9 62.4 59 8.9 48
04:00 1017 30.03 846 24.98 16.8 62.2 59 8.7 47.7
04:05 1017 30.03 846 24.98 16.8 62.2 58 8.6 47.4
04:10 1017 30.03 846 24.98 16.7 62 61 9.2 48.5
04:15 1017 30.03 846 24.98 16.5 61.8 64 9.7 49.4
04:20 1017 30.03 846 24.98 16.5 61.7 62 9.4 48.8
04:25 1017 30.03 846 24.98 15.8 60.5 66 9.7 49.4
04:30 1017 30.03 846 24.98 15.2 59.4 68 9.4 49
04:35 1017 30.03 846 24.98 15.4 59.8 66 9.1 48.4
04:40 1017 30.03 846 24.98 15.5 59.9 65 9 48.3
04:45 1017 30.03 846 24.98 15.5 59.8 65 9 48.3
04:50 1017 30.03 846 24.98 15.4 59.6 66 9.1 48.4
04:55 1017 30.03 846 24.98 15.4 59.6 64 8.8 47.8
05:00 1017 30.03 846 24.98 15.4 59.8 65 9 48.3
05:05 1017 30.03 846 24.98 15.5 59.8 66 9.2 48.6
05:10 1017 30.03 846 24.98 15.3 59.5 67 9.4 48.9
05:15 1017 30.03 846 24.98 15.4 59.7 66 9.1 48.3
05:20 1017 30.03 846 24.98 15.4 59.7 65 8.9 48
05:25 1017 30.03 846 24.98 15.4 59.7 65 9 48.3
05:30 1017 30.03 846 24.98 15.4 59.7 66 9 48.3
05:35 1017 30.03 846 24.98 15.3 59.5 65 8.8 47.8
05:40 1017 30.03 846 24.98 15.4 59.7 64 8.7 47.6
05:45 1017 30.03 846 24.98 15.3 59.6 64 8.6 47.4
05:50 1017 30.03 846 24.98 15.3 59.5 64 8.6 47.5
05:55 1017 30.03 846 24.98 14.9 58.8 66 8.7 47.7
06:00 1017 30.03 846 24.98 14.6 58.3 67 8.7 47.6
06:05 1017 30.03 846 24.98 14.3 57.7 69 8.7 47.7
06:10 1017 30.03 846 24.98 14.1 57.3 70 8.8 47.8
06:15 1017 30.03 846 24.98 14 57.3 71 8.8 47.8
06:20 1017 30.03 846 24.98 14 57.1 71 8.8 47.9
06:25 1017 30.03 846 24.98 14 57.1 71 8.8 47.8
06:30 1017 30.03 846 24.98 14 57.2 73 9.2 48.6
06:35 1017 30.03 846 24.98 14.1 57.5 71 9 48.2
06:40 1017 30.03 846 24.98 14.1 57.3 71 8.9 48.1
06:45 1017 30.03 846 24.98 14.1 57.3 71 9 48.2
06:50 1017 30.03 846 24.98 13.9 57.1 73 9.1 48.4
06:55 1017 30.03 846 24.98 13.9 57 72 8.9 48
07:00 1017 30.03 846 24.98 13.9 56.9 72 8.9 48.1
07:05 1017 30.03 846 24.98 13.9 57.1 72 8.9 48
07:10 1017 30.03 846 24.98 14 57.2 71 8.8 47.8
07:15 1017 30.03 846 24.98 14.3 57.7 69 8.8 47.8
07:20 1017 30.03 846 24.98 14.7 58.4 68 8.8 47.8
07:25 1017 30.03 846 24.98 15 58.9 67 8.9 48.1
07:30 1017 30.03 846 24.98 15.3 59.6 65 8.9 48.1
07:35 1017 30.03 846 24.98 15.8 60.4 63 8.7 47.7
07:40 1017 30.03 846 24.98 16.2 61.1 61 8.7 47.7
07:45 1017 30.03 846 24.98 16.5 61.6 60 8.7 47.6
07:50 1017 30.03 846 24.98 16.7 62 59 8.8 47.8
07:55 1017 30.03 846 24.98 17 62.5 58 8.7 47.7
08:00 1017 30.03 846 24.98 17.3 63.1 57 8.9 48.1
08:05 1017 30.03 846 24.98 17.4 63.4 57 9.1 48.3
08:10 1017 30.03 846 24.98 17.4 63.4 58 9.1 48.4
08:15 1017 30.03 846 24.98 17.7 63.8 57 9.1 48.3
08:20 1017 30.03 846 24.98 17.7 63.8 57 9.2 48.6
08:25 1017 30.03 846 24.98 18 64.4 60 10.1 50.3
08:30 1017 30.03 846 24.98 17.9 64.3 56 9.1 48.3
08:35 1017 30.03 846 24.98 18.6 65.6 53 8.9 48
08:40 1017 30.03 846 24.98 19.5 67.1 49 8.8 47.8
08:45 1017 30.03 846 24.98 20.2 68.4 46 8.5 47.4
08:50 1017 30.03 846 24.98 20.9 69.5 44 8.3 46.9
08:55 1017 30.03 846 24.98 21.1 69.9 44 8.6 47.5
09:00 1017 30.03 846 24.98 21.1 70 46 9.3 48.7
09:05 1017 30.03 846 24.98 21.2 70.2 45 8.8 47.9
09:10 1017 30.03 846 24.98 21.1 70 47 9.4 48.9
09:15 1017 30.03 846 24.98 20.9 69.6 47 9.2 48.6
09:20 1017 30.03 846 24.98 21.3 70.4 43 8.5 47.3
09:25 1017 30.03 846 24.98 21.5 70.8 44 9 48.3
09:30 1017 30.03 846 24.98 21.5 70.6 43 8.7 47.6
09:35 1017 30.03 846 24.98 21.7 71.1 44 9 48.2
09:40 1017 30.03 846 24.98 22 71.5 41 8.3 46.9
09:45 1017 30.03 846 24.98 21.7 71.1 41 8.2 46.7
09:50 1017 30.03 846 24.98 21.5 70.6 40 7.7 45.8
09:55 1017 30.03 846 24.98 21.5 70.7 40 7.6 45.7
10:00 1017 30.03 846 24.98 21.8 71.3 43 8.9 48
10:05 1017 30.03 846 24.98 21.6 70.8 44 8.9 48
10:10 1017 30.03 846 24.98 21.1 69.9 45 8.7 47.6
10:15 1017 30.03 846 24.98 21.2 70.2 46 9.4 49
10:20 1017 30.03 846 24.98 21.5 70.7 46 9.5 49.2
10:25 1017 30.03 846 24.98 22 71.6 43 9.1 48.4
10:30 1017 30.03 846 24.98 22.3 72.2 42 8.9 48
10:35 1017 30.03 846 24.98 22.6 72.7 43 9.6 49.2
10:40 1017 30.03 846 24.98 23.2 73.8 39 8.8 47.8
10:45 1017 30.03 846 24.98 22.8 73 42 9.4 48.9
10:50 1017 30.03 846 24.98 23.1 73.7 43 10.1 50.2
10:55 1017 30.03 846 24.98 24.1 75.3 37 8.6 47.4
11:00 1017 30.03 846 24.98 24.9 76.7 37 9.3 48.8
11:05 1017 30.03 846 24.98 24.6 76.3 39 9.8 49.7
11:10 1017 30.03 846 24.98 23.2 73.7 43 10 50.1
11:15 1017 30.03 846 24.98 22.7 72.9 41 9.1 48.3
11:20 1017 30.03 846 24.98 22.5 72.6 41 8.9 48
11:25 1017 30.03 846 24.98 22.8 73 41 8.9 48
11:30 1017 30.03 846 24.98 22.9 73.1 40 8.8 47.9
11:35 1017 30.03 846 24.98 22.3 72.2 42 8.8 47.9
11:40 1017 30.03 846 24.98 22.2 72 42 8.9 48.1
11:45 1017 30.03 846 24.98 22 71.6 43 9.1 48.3
11:50 1017 30.03 846 24.98 21.5 70.7 44 8.9 48.1
11:55 1017 30.03 846 24.98 21.5 70.8 43 8.7 47.7
12:00 1017 30.03 846 24.98 22 71.7 42 8.6 47.5
12:05 1017 30.03 846 24.98 21.9 71.4 43 8.8 47.8
12:10 1017 30.03 846 24.98 21.6 70.8 43 8.7 47.7
12:15 1017 30.03 846 24.98 21.9 71.5 42 8.7 47.7
12:20 1017 30.03 846 24.98 21.5 70.6 44 8.9 48
12:25 1017 30.03 846 24.98 21.5 70.7 43 8.6 47.5
12:30 1017 30.03 846 24.98 22.2 71.9 42 8.7 47.6
12:35 1017 30.03 846 24.98 22.7 72.8 41 8.8 47.8
12:40 1017 30.03 846 24.98 23 73.3 40 8.9 48.1
12:45 1017 30.03 846 24.98 23.4 74.1 39 8.9 48.1
12:50 1017 30.03 846 24.98 23.2 73.7 40 9.2 48.5
12:55 1017 30.03 846 24.98 22.8 73.1 40 8.7 47.7
13:00 1017 30.03 846 24.98 23.2 73.7 38 8.1 46.6
13:05 1017 30.03 846 24.98 23.1 73.6 40 9 48.2
13:10 1017 30.03 846 24.98 23.2 73.7 37 7.7 45.9
13:15 1017 30.03 846 24.98 24.6 76.3 34 8 46.5
13:20 1017 30.03 846 24.98 24.8 76.6 36 9.1 48.3
13:25 1017 30.03 846 24.98 25 76.9 37 9.5 49
13:30 1017 30.03 846 24.98 23.5 74.3 39 9 48.1
13:35 1017 30.03 846 24.98 23.1 73.7 39 8.6 47.4
13:40 1016 30 846 24.98 22.9 73.3 40 8.8 47.8
13:45 1016 30 846 24.98 22.9 73.2 39 8.3 46.9
13:50 1016 30 846 24.98 22.9 73.1 39 8.5 47.3
13:55 1016 30 846 24.98 23.1 73.5 38 8.3 46.9
14:00 1016 30 846 24.98 24.2 75.6 34 7.8 46
14:05 1016 30 845 24.95 24.3 75.7 35 8 46.3
14:10 1016 30 845 24.95 24.7 76.5 34 7.8 46.1
14:15 1016 30 845 24.95 24.6 76.3 35 8.5 47.3
14:20 1016 30 845 24.95 24.3 75.7 35 8.1 46.5
14:25 1016 30 845 24.95 23.5 74.4 37 8.4 47.1
14:30 1016 30 845 24.95 24.3 75.8 34 7.6 45.7
14:35 1016 30 845 24.95 24.3 75.7 41 10.4 50.7
14:40 1016 30 845 24.95 23.5 74.3 44 10.8 51.4
14:45 1016 30 845 24.95 22.9 73.3 44 10.1 50.1
14:50 1016 30 845 24.95 23.1 73.6 43 10.2 50.3
14:55 1016 30 845 24.95 22.6 72.7 45 10.1 50.2
15:00 1016 30 845 24.95 21.9 71.4 43 9 48.1
15:05 1016 30 845 24.95 22.6 72.7 39 8.3 46.9
15:10 1016 30 845 24.95 23.3 73.9 37 8.2 46.7
15:15 1016 30 845 24.95 23.9 74.9 35 7.7 45.9
15:20 1016 30 845 24.95 24.1 75.4 34 7.6 45.7
15:25 1016 30 845 24.95 25.5 77.9 32 7.8 46
15:30 1016 30 845 24.95 26.1 79 30 7.5 45.4
15:35 1016 30 845 24.95 25.3 77.6 31 7.1 44.7
15:40 1016 30 845 24.95 25.3 77.6 30 6.9 44.5
15:45 1016 30 845 24.95 25.9 78.5 31 7.7 45.9
15:50 1016 30 845 24.95 26.2 79.1 29 7.2 44.9
15:55 1016 30 845 24.95 26.2 79.2 30 7.7 45.9
16:00 1016 30 845 24.95 25.8 78.4 29 6.8 44.2
16:05 1015 29.97 845 24.95 26 78.8 30 7.6 45.6
16:10 1015 29.97 845 24.95 25.6 78 31 7.5 45.4
16:15 1015 29.97 845 24.95 25.3 77.5 31 7.1 44.8
16:20 1015 29.97 845 24.95 26.4 79.4 30 7.5 45.5
16:25 1015 29.97 845 24.95 26.4 79.5 30 7.6 45.6
16:30 1015 29.97 845 24.95 25.5 77.8 31 7.6 45.6
16:35 1015 29.97 844 24.92 25.5 77.9 31 7.1 44.9
16:40 1015 29.97 844 24.92 25.7 78.3 31 7.5 45.6
16:45 1015 29.97 844 24.92 25.3 77.6 31 7 44.7
16:50 1015 29.97 844 24.92 26.1 78.9 30 7.3 45.2
16:55 1015 29.97 844 24.92 25.3 77.5 32 7.5 45.4
17:00 1015 29.97 844 24.92 25 77 31 7.1 44.8
17:05 1015 29.97 844 24.92 25.3 77.5 30 6.7 44.1
17:10 1015 29.97 844 24.92 25.8 78.4 29 6.7 44.1
17:15 1015 29.97 844 24.92 25.3 77.5 31 7 44.7
17:20 1015 29.97 844 24.92 24.7 76.4 31 6.9 44.4
17:25 1015 29.97 844 24.92 24.8 76.6 31 6.7 44
17:30 1015 29.97 844 24.92 25.3 77.5 31 7 44.7
17:35 1015 29.97 844 24.92 25.5 77.9 30 6.9 44.4
17:40 1015 29.97 844 24.92 24.9 76.8 30 6.5 43.7
17:45 1015 29.97 844 24.92 25 76.9 30 6.4 43.6
17:50 1015 29.97 844 24.92 25.6 78.1 29 6.4 43.4
17:55 1015 29.97 844 24.92 25.7 78.2 30 7.1 44.8
18:00 1015 29.97 844 24.92 25.5 77.9 28 6.1 43
18:05 1015 29.97 844 24.92 25.2 77.3 29 6.3 43.4
18:10 1015 29.97 844 24.92 25.1 77.1 30 6.4 43.6
18:15 1015 29.97 844 24.92 25.2 77.4 31 7.1 44.7
18:20 1015 29.97 844 24.92 25.2 77.4 30 6.7 44
18:25 1015 29.97 844 24.92 25.3 77.5 30 6.8 44.3
18:30 1015 29.97 844 24.92 25.4 77.7 31 7.1 44.8
18:35 1015 29.97 844 24.92 25.2 77.3 32 7.5 45.6
18:40 1015 29.97 844 24.92 25.3 77.5 30 6.6 43.9
18:45 1015 29.97 844 24.92 24.9 76.8 30 6.6 43.8
18:50 1015 29.97 844 24.92 24.9 76.7 31 6.8 44.2
18:55 1015 29.97 844 24.92 24.9 76.8 31 6.8 44.2
19:00 1015 29.97 844 24.92 24.3 75.7 32 6.6 43.9
19:05 1015 29.97 844 24.92 24.3 75.8 31 6.3 43.4
19:10 1015 29.97 844 24.92 24.4 76 31 6.5 43.8
19:15 1015 29.97 844 24.92 24.4 75.9 32 6.8 44.2
19:20 1015 29.97 844 24.92 24.4 75.8 31 6.5 43.6
19:25 1015 29.97 844 24.92 24.3 75.7 31 6.5 43.7
19:30 1015 29.97 844 24.92 23.9 74.9 32 6.5 43.8
19:35 1015 29.97 844 24.92 24 75.2 32 6.4 43.5
19:40 1015 29.97 844 24.92 24.2 75.5 31 6.3 43.3
19:45 1015 29.97 844 24.92 24 75.2 31 6.2 43.1
19:50 1015 29.97 844 24.92 23.7 74.7 32 6.2 43.2
19:55 1015 29.97 844 24.92 23.8 74.8 33 6.6 43.8
20:00 1015 29.97 844 24.92 23.9 75 33 6.7 44
20:05 1015 29.97 844 24.92 23.8 74.9 33 6.7 44.1
20:10 1015 29.97 845 24.95 23.8 74.8 35 7.4 45.4
20:15 1015 29.97 845 24.95 23.5 74.2 37 8.1 46.6
20:20 1015 29.97 845 24.95 23.1 73.6 37 7.9 46.2
20:25 1015 29.97 845 24.95 23 73.4 38 8 46.4
20:30 1015 29.97 845 24.95 22.9 73.2 38 8 46.3
20:35 1015 29.97 845 24.95 22.6 72.7 38 8 46.3
20:40 1015 29.97 845 24.95 22.5 72.4 39 8 46.4
20:45 1015 29.97 845 24.95 22.3 72.1 40 8.2 46.7
20:50 1015 29.97 845 24.95 22.2 72 41 8.4 47.1
20:55 1015 29.97 845 24.95 22 71.7 41 8.4 47.1
21:00 1015 29.97 845 24.95 21.7 71.1 42 8.3 46.9
21:05 1015 29.97 845 24.95 21.4 70.6 42 8.1 46.6
21:10 1015 29.97 845 24.95 21.2 70.1 42 7.9 46.2
21:15 1015 29.97 845 24.95 21.2 70.1 42 7.9 46.1
21:20 1016 30 845 24.95 20.9 69.7 44 8.4 47.2
21:25 1016 30 845 24.95 20.7 69.3 45 8.4 47.1
21:30 1016 30 845 24.95 20.5 68.9 46 8.5 47.4
21:35 1016 30 845 24.95 20.3 68.5 47 8.7 47.6
21:40 1016 30 845 24.95 20 67.9 47 8.6 47.4
21:45 1016 30 845 24.95 19.5 67.1 54 10.1 50.1
21:50 1016 30 845 24.95 18.9 66 54 9.5 49.2
21:55 1016 30 845 24.95 18 64.4 57 9.6 49.2
22:00 1016 30 845 24.95 17.6 63.8 57 9.1 48.5
22:05 1016 30 845 24.95 17.8 64 56 9.1 48.4
22:10 1016 30 845 24.95 18 64.4 55 9 48.2
22:15 1016 30 845 24.95 18.2 64.7 56 9.3 48.8
22:20 1016 30 845 24.95 17.8 64.1 57 9.3 48.7
22:25 1016 30 845 24.95 17.7 63.8 59 9.7 49.5
22:30 1016 30 845 24.95 17.6 63.7 58 9.3 48.8
22:35 1016 30 845 24.95 17.1 62.8 61 9.5 49.2
22:40 1016 30 845 24.95 16.7 62 62 9.5 49
22:45 1016 30 845 24.95 16.8 62.2 61 9.2 48.6
22:50 1016 30 845 24.95 16.5 61.8 62 9.3 48.7
22:55 1016 30 845 24.95 16.7 62 61 9.2 48.6
23:00 1016 30 845 24.95 16.9 62.4 61 9.3 48.8
23:05 1016 30 845 24.95 16.8 62.2 61 9.3 48.8
23:10 1016 30 846 24.98 16.7 62.1 61 9.3 48.8
23:15 1016 30 846 24.98 16.7 62.1 65 10.1 50.2
23:20 1016 30 846 24.98 16.4 61.5 62 9.2 48.6
23:25 1016 30 846 24.98 16 60.9 63 9.1 48.4
23:30 1016 30 846 24.98 15.9 60.7 63 9.1 48.4
23:35 1016 30 846 24.98 15.9 60.6 63 8.9 48.1
23:40 1017 30.03 846 24.98 15.8 60.4 63 8.8 47.8
23:45 1016 30 846 24.98 15.8 60.5 66 9.5 49.1
23:50 1016 30 846 24.98 16 60.8 62 8.8 47.8
23:55 1016 30 845 24.95 15.8 60.4 63 8.9 48
24:00 1016 30 845 24.95 15.7 60.3 64 9.1 48.4